createdAt,value
2022-12-23T00:00:43.546Z,99700.06
2022-12-23T00:03:10.837Z,99690.78
2022-12-23T00:05:39.213Z,99682.28
2022-12-23T00:08:07.178Z,99681.19
2022-12-23T00:10:35.177Z,99683.72
2022-12-23T00:13:21.509Z,99682.78
2022-12-23T00:15:48.965Z,99671.56
2022-12-23T00:18:16.144Z,99676.63
2022-12-23T00:20:43.232Z,99677.28
2022-12-23T00:23:10.385Z,99666.75
2022-12-23T00:25:42.454Z,99667.56
2022-12-23T00:28:12.138Z,99660.59
2022-12-23T00:30:53.236Z,99662.28
2022-12-23T00:33:23.015Z,99658.72
2022-12-23T00:35:50.759Z,99656.84
2022-12-23T00:38:41.931Z,99658.72
2022-12-23T00:41:31.576Z,99644.03
2022-12-23T00:43:58.958Z,99639.69
2022-12-23T00:46:26.214Z,99643.03
2022-12-23T00:49:12.260Z,99640.31
2022-12-23T00:51:39.409Z,99640.31
2022-12-23T00:54:07.213Z,99637.63
2022-12-23T00:56:34.344Z,99634.94
2022-12-23T00:59:01.728Z,99636.59
2022-12-23T01:01:47.860Z,99631.31
2022-12-23T01:04:33.977Z,99633.03
2022-12-23T01:07:01.355Z,99637.44
2022-12-23T01:09:28.620Z,99628.75
2022-12-23T01:11:55.745Z,99624.47
2022-12-23T01:14:22.960Z,99615.69
2022-12-23T01:16:50.216Z,99620.91
2022-12-23T01:19:17.396Z,99617.00
2022-12-23T01:21:44.488Z,99624.22
2022-12-23T01:24:11.631Z,99626.09
2022-12-23T01:26:38.789Z,99631.06
2022-12-23T01:29:05.962Z,99625.66
2022-12-23T01:31:33.172Z,99625.09
2022-12-23T01:34:00.303Z,99627.03
2022-12-23T01:36:27.671Z,99614.53
2022-12-23T01:38:56.462Z,99620.34
2022-12-23T01:41:44.997Z,99612.31
2022-12-23T01:44:49.019Z,99608.69
2022-12-23T01:47:46.938Z,99609.50
2022-12-23T01:50:21.146Z,99608.69
2022-12-23T01:53:10.170Z,99603.66
2022-12-23T01:55:50.643Z,99607.09
2022-12-23T01:58:27.847Z,99607.84
2022-12-23T02:01:14.799Z,99599.91
2022-12-23T02:03:42.738Z,99598.16
2022-12-23T02:06:52.796Z,99593.81
2022-12-23T02:09:25.155Z,99590.31
2022-12-23T02:11:58.105Z,99586.75
2022-12-23T02:15:02.818Z,99588.59
2022-12-23T02:17:57.107Z,99587.84
2022-12-23T02:20:33.025Z,99584.31
2022-12-23T02:23:18.601Z,99579.91
2022-12-23T02:26:03.764Z,99583.47
2022-12-23T02:28:39.728Z,99580.00
2022-12-23T02:31:12.117Z,99570.38
2022-12-23T02:33:51.088Z,99567.66
2022-12-23T02:36:49.953Z,99559.94
2022-12-23T02:39:37.601Z,99563.47
2022-12-23T02:42:12.865Z,99560.03
2022-12-23T02:44:44.158Z,99547.78
2022-12-23T02:47:14.701Z,99547.78
2022-12-23T02:49:45.572Z,99544.34
2022-12-23T02:52:18.660Z,99545.19
2022-12-23T02:54:50.265Z,99540.88
2022-12-23T02:57:20.577Z,99539.13
2022-12-23T02:59:50.991Z,99539.13
2022-12-23T03:02:18.885Z,99532.09
2022-12-23T03:04:46.186Z,99527.81
2022-12-23T03:07:18.734Z,99526.03
2022-12-23T03:09:59.727Z,99521.75
2022-12-23T03:12:49.789Z,99518.25
2022-12-23T03:15:35.580Z,99513.13
2022-12-23T03:18:12.351Z,99518.25
2022-12-23T03:20:47.036Z,99511.34
2022-12-23T03:23:20.248Z,99517.44
2022-12-23T03:26:02.101Z,99520.81
2022-12-23T03:28:38.154Z,99519.19
2022-12-23T03:31:09.874Z,99517.44
2022-12-23T03:33:40.959Z,99516.53
2022-12-23T03:36:20.475Z,99522.59
2022-12-23T03:38:48.777Z,99515.56
2022-12-23T03:41:27.509Z,99511.91
2022-12-23T03:44:10.323Z,99508.56
2022-12-23T03:46:44.243Z,99502.41
2022-12-23T03:49:26.170Z,99500.72
2022-12-23T03:51:58.734Z,99495.41
2022-12-23T03:54:30.712Z,99499.69
2022-12-23T03:57:02.927Z,99499.59
2022-12-23T03:59:39.713Z,99496.16
2022-12-23T04:02:15.928Z,99490.81
2022-12-23T04:05:01.254Z,99490.81
2022-12-23T04:07:42.798Z,99484.75
2022-12-23T04:10:10.405Z,99491.66
2022-12-23T04:12:38.082Z,99491.66
2022-12-23T04:15:10.853Z,99490.81
2022-12-23T04:17:40.141Z,99491.66
2022-12-23T04:20:07.841Z,99489.81
2022-12-23T04:22:36.201Z,99485.41
2022-12-23T04:25:03.438Z,99480.19
2022-12-23T04:27:30.567Z,99486.25
2022-12-23T04:29:57.676Z,99472.97
2022-12-23T04:32:24.848Z,99484.28
2022-12-23T04:34:52.135Z,99477.28
2022-12-23T04:37:19.242Z,99482.53
2022-12-23T04:39:46.425Z,99481.69
2022-12-23T04:42:13.562Z,99480.63
2022-12-23T04:44:40.718Z,99479.81
2022-12-23T04:47:07.914Z,99478.03
2022-12-23T04:49:35.108Z,99474.56
2022-12-23T04:52:02.209Z,99476.44
2022-12-23T04:54:29.332Z,99472.78
2022-12-23T04:56:56.486Z,99471.00
2022-12-23T04:59:23.665Z,99473.63
2022-12-23T05:01:51.070Z,99473.56
2022-12-23T05:04:18.431Z,99472.78
2022-12-23T05:06:45.578Z,99474.38
2022-12-23T05:09:12.705Z,99472.59
2022-12-23T05:11:42.305Z,99473.44
2022-12-23T05:14:10.869Z,99472.50
2022-12-23T05:16:38.736Z,99475.22
2022-12-23T05:19:06.349Z,99478.97
2022-12-23T05:21:33.502Z,99474.56
2022-12-23T05:24:00.637Z,99482.25
2022-12-23T05:26:27.738Z,99484.00
2022-12-23T05:28:55.157Z,99479.50
2022-12-23T05:31:22.328Z,99479.63
2022-12-23T05:33:49.599Z,99472.59
2022-12-23T05:36:16.748Z,99473.56
2022-12-23T05:38:43.971Z,99468.31
2022-12-23T05:41:11.087Z,99467.44
2022-12-23T05:43:38.251Z,99471.78
2022-12-23T05:46:05.528Z,99477.00
2022-12-23T05:48:32.776Z,99482.13
2022-12-23T05:51:00.033Z,99479.81
2022-12-23T05:53:27.167Z,99479.91
2022-12-23T05:55:54.318Z,99481.69
2022-12-23T05:58:21.509Z,99482.31
2022-12-23T06:00:48.617Z,99474.38
2022-12-23T06:03:15.884Z,99476.78
2022-12-23T06:05:43.996Z,99474.94
2022-12-23T06:08:11.286Z,99488.19
2022-12-23T06:10:38.517Z,99491.00
2022-12-23T06:13:05.685Z,99484.94
2022-12-23T06:15:32.814Z,99488.38
2022-12-23T06:17:59.917Z,99478.84
2022-12-23T06:20:27.049Z,99486.81
2022-12-23T06:22:54.265Z,99502.31
2022-12-23T06:25:21.530Z,99497.00
2022-12-23T06:27:48.627Z,99504.72
2022-12-23T06:30:15.864Z,99510.63
2022-12-23T06:32:43.041Z,99513.91
2022-12-23T06:35:10.264Z,99509.41
2022-12-23T06:37:37.589Z,99517.34
2022-12-23T06:40:05.347Z,99516.34
2022-12-23T06:42:32.532Z,99520.06
2022-12-23T06:44:59.658Z,99523.53
2022-12-23T06:47:26.776Z,99532.03
2022-12-23T06:49:54.815Z,99536.41
2022-12-23T06:52:23.097Z,99539.66
2022-12-23T06:54:50.304Z,99538.72
2022-12-23T06:57:17.452Z,99542.22
2022-12-23T06:59:44.613Z,99548.34
2022-12-23T07:02:12.226Z,99547.81
2022-12-23T07:04:39.593Z,99540.72
2022-12-23T07:07:06.693Z,99546.78
2022-12-23T07:09:33.833Z,99547.63
2022-12-23T07:12:02.950Z,99550.34
2022-12-23T07:14:30.105Z,99556.59
2022-12-23T07:16:57.288Z,99557.16
2022-12-23T07:19:24.476Z,99561.94
2022-12-23T07:21:51.623Z,99558.47
2022-12-23T07:24:18.732Z,99554.16
2022-12-23T07:26:45.842Z,99561.94
2022-12-23T07:29:12.949Z,99564.25
2022-12-23T07:31:41.225Z,99568.84
2022-12-23T07:34:09.324Z,99571.44
2022-12-23T07:36:36.467Z,99572.19
2022-12-23T07:39:03.975Z,99570.63
2022-12-23T07:41:31.201Z,99568.94
2022-12-23T07:43:58.401Z,99573.31
2022-12-23T07:46:25.659Z,99574.16
2022-12-23T07:48:52.850Z,99574.44
2022-12-23T07:51:19.963Z,99581.34
2022-12-23T07:53:50.301Z,99576.97
2022-12-23T07:56:18.445Z,99579.47
2022-12-23T07:58:53.015Z,99586.22
2022-12-23T08:01:20.680Z,99589.75
2022-12-23T08:03:48.019Z,99589.28
2022-12-23T08:06:16.070Z,99589.47
2022-12-23T08:08:45.161Z,99596.38
2022-12-23T08:11:14.177Z,99611.41
2022-12-23T08:13:44.359Z,99610.31
2022-12-23T08:16:12.416Z,99607.13
2022-12-23T08:18:41.195Z,99608.34
2022-12-23T08:21:14.803Z,99620.56
2022-12-23T08:23:43.431Z,99619.44
2022-12-23T08:26:12.885Z,99619.44
2022-12-23T08:28:41.551Z,99616.81
2022-12-23T08:31:20.787Z,99618.53
2022-12-23T08:33:49.494Z,99623.91
2022-12-23T08:36:23.349Z,99627.22
2022-12-23T08:38:53.244Z,99613.47
2022-12-23T08:41:24.608Z,99624.03
2022-12-23T08:43:52.004Z,99613.63
2022-12-23T08:46:19.572Z,99614.31
2022-12-23T08:48:49.427Z,99613.47
2022-12-23T08:51:18.803Z,99617.59
2022-12-23T08:53:47.054Z,99622.16
2022-12-23T08:56:17.992Z,99623.25
2022-12-23T08:58:46.741Z,99625.97
2022-12-23T09:01:15.770Z,99626.72
2022-12-23T09:03:43.730Z,99639.25
2022-12-23T09:06:16.501Z,99625.91
2022-12-23T09:08:43.803Z,99634.78
2022-12-23T09:11:16.729Z,99655.59
2022-12-23T09:13:44.242Z,99661.28
2022-12-23T09:16:11.598Z,99662.16
2022-12-23T09:18:38.757Z,99664.09
2022-12-23T09:21:10.935Z,99664.94
2022-12-23T09:23:38.019Z,99664.94
2022-12-23T09:26:06.156Z,99666.44
2022-12-23T09:28:33.288Z,99672.63
2022-12-23T09:31:08.644Z,99680.63
2022-12-23T09:33:36.589Z,99674.03
2022-12-23T09:36:04.670Z,99685.50
2022-12-23T09:38:32.241Z,99697.00
2022-12-23T09:41:27.604Z,99704.38
2022-12-23T09:44:19.115Z,99715.38
2022-12-23T09:46:55.710Z,99717.13
2022-12-23T09:49:23.745Z,99722.56
2022-12-23T09:51:54.083Z,99716.47
2022-12-23T09:54:23.808Z,99720.97
2022-12-23T09:57:12.634Z,99725.19
2022-12-23T10:00:01.240Z,99731.53
2022-12-23T10:02:38.982Z,99734.88
2022-12-23T10:05:27.385Z,99734.78
2022-12-23T10:08:04.459Z,99734.59
2022-12-23T10:10:35.644Z,99737.31
2022-12-23T10:13:06.014Z,99740.00
2022-12-23T10:15:42.624Z,99739.16
2022-12-23T10:18:20.699Z,99738.25
2022-12-23T10:20:53.123Z,99738.16
2022-12-23T10:23:28.815Z,99734.78
2022-12-23T10:25:55.876Z,99740.09
2022-12-23T10:28:23.023Z,99739.16
2022-12-23T10:31:30.900Z,99725.09
2022-12-23T10:34:02.377Z,99735.28
2022-12-23T10:36:55.784Z,99734.34
2022-12-23T10:39:36.841Z,99726.50
2022-12-23T10:42:10.765Z,99726.34
2022-12-23T10:44:59.368Z,99718.22
2022-12-23T10:47:38.608Z,99720.19
2022-12-23T10:50:36.873Z,99718.16
2022-12-23T10:53:08.021Z,99721.34
2022-12-23T10:55:38.330Z,99722.28
2022-12-23T10:58:18.150Z,99732.00
2022-12-23T11:00:52.750Z,99735.84
2022-12-23T11:03:41.630Z,99736.69
2022-12-23T11:06:09.914Z,99735.38
2022-12-23T11:08:38.341Z,99737.03
2022-12-23T11:11:07.195Z,99735.38
2022-12-23T11:13:42.685Z,99734.44
2022-12-23T11:16:15.679Z,99737.13
2022-12-23T11:18:57.749Z,99743.16
2022-12-23T11:21:25.846Z,99744.91
2022-12-23T11:24:19.732Z,99734.25
2022-12-23T11:26:49.757Z,99740.25
2022-12-23T11:29:25.599Z,99741.38
2022-12-23T11:31:52.981Z,99736.03
2022-12-23T11:34:22.856Z,99731.91
2022-12-23T11:36:56.586Z,99739.09
2022-12-23T11:39:33.880Z,99745.16
2022-12-23T11:42:18.516Z,99747.78
2022-12-23T11:44:50.749Z,99747.88
2022-12-23T11:47:23.837Z,99749.22
2022-12-23T11:49:55.717Z,99754.53
2022-12-23T11:52:30.746Z,99765.75
2022-12-23T11:55:00.551Z,99765.50
2022-12-23T11:57:41.058Z,99763.72
2022-12-23T12:00:20.753Z,99764.28
2022-12-23T12:02:50.867Z,99761.00
2022-12-23T12:05:22.524Z,99767.28
2022-12-23T12:07:50.512Z,99784.09
2022-12-23T12:10:22.753Z,99785.09
2022-12-23T12:12:54.810Z,99785.66
2022-12-23T12:15:31.256Z,99797.00
2022-12-23T12:17:59.444Z,99797.00
2022-12-23T12:20:30.218Z,99795.66
2022-12-23T12:23:13.191Z,99797.75
2022-12-23T12:25:42.331Z,99796.22
2022-12-23T12:28:14.067Z,99789.38
2022-12-23T12:30:54.055Z,99787.69
2022-12-23T12:33:48.483Z,99790.06
2022-12-23T12:36:21.633Z,99781.19
2022-12-23T12:38:49.241Z,99783.25
2022-12-23T12:41:21.205Z,99787.94
2022-12-23T12:43:52.853Z,99781.22
2022-12-23T12:46:34.962Z,99766.38
2022-12-23T12:49:26.713Z,99772.94
2022-12-23T12:52:13.455Z,99770.38
2022-12-23T12:54:46.573Z,99763.31
2022-12-23T12:57:18.899Z,99763.41
2022-12-23T12:59:48.150Z,99762.66
2022-12-23T13:02:43.107Z,99760.81
2022-12-23T13:05:19.637Z,99767.91
2022-12-23T13:08:01.939Z,99764.44
2022-12-23T13:10:51.927Z,99772.41
2022-12-23T13:13:58.148Z,99773.34
2022-12-23T13:16:28.205Z,99774.09
2022-12-23T13:19:43.973Z,99767.53
2022-12-23T13:22:13.117Z,99766.59
2022-12-23T13:25:12.680Z,99763.31
2022-12-23T13:27:45.499Z,99754.88
2022-12-23T13:30:17.918Z,99750.28
2022-12-23T13:32:49.542Z,99740.75
2022-12-23T13:35:53.758Z,99738.41
2022-12-23T13:38:31.449Z,99723.75
2022-12-23T13:41:05.758Z,99738.50
2022-12-23T13:43:46.295Z,99740.31
2022-12-23T13:46:43.115Z,99739.47
2022-12-23T13:49:34.417Z,99732.63
2022-12-23T13:52:06.222Z,99735.91
2022-12-23T13:55:11.429Z,99737.31
2022-12-23T13:57:59.751Z,99748.34
2022-12-23T14:00:32.323Z,99753.13
2022-12-23T14:03:02.515Z,99740.94
2022-12-23T14:05:38.716Z,99744.28
2022-12-23T14:08:20.992Z,99743.25
2022-12-23T14:10:58.933Z,99740.47
2022-12-23T14:13:29.423Z,99742.06
2022-12-23T14:16:34.860Z,99738.13
2022-12-23T14:19:27.563Z,99743.38
2022-12-23T14:22:13.497Z,99749.53
2022-12-23T14:25:08.158Z,99735.44
2022-12-23T14:28:02.567Z,99738.69
2022-12-23T14:30:41.162Z,99741.25
2022-12-23T14:33:29.125Z,99746.19
2022-12-23T14:35:58.277Z,99755.63
2022-12-23T14:38:30.547Z,99749.00
2022-12-23T14:41:19.650Z,99743.09
2022-12-23T14:43:46.747Z,99747.50
2022-12-23T14:46:35.651Z,99749.44
2022-12-23T14:49:37.574Z,99749.91
2022-12-23T14:51:53.092Z,99750.38
2022-12-23T14:54:37.895Z,99754.69
2022-12-23T14:57:17.833Z,99759.19
2022-12-23T14:59:49.260Z,99752.81
2022-12-23T15:02:20.855Z,99756.19
2022-12-23T15:04:53.200Z,99761.41
2022-12-23T15:07:34.116Z,99762.53
2022-12-23T15:10:04.699Z,99759.28
2022-12-23T15:12:41.232Z,99761.91
2022-12-23T15:15:24.020Z,99767.88
2022-12-23T15:18:10.669Z,99766.00
2022-12-23T15:20:37.808Z,99767.78
2022-12-23T15:23:14.669Z,99756.56
2022-12-23T15:25:46.464Z,99755.78
2022-12-23T15:28:19.624Z,99755.91
2022-12-23T15:30:49.312Z,99761.97
2022-12-23T15:33:51.901Z,99760.84
2022-12-23T15:36:07.567Z,99760.97
2022-12-23T15:38:36.408Z,99755.91
2022-12-23T15:41:06.637Z,99753.09
2022-12-23T15:43:40.924Z,99746.00
2022-12-23T15:46:26.943Z,99745.03
2022-12-23T15:48:57.169Z,99749.81
2022-12-23T15:51:58.291Z,99753.53
2022-12-23T15:54:21.244Z,99745.13
2022-12-23T15:56:50.871Z,99745.97
2022-12-23T15:59:25.049Z,99741.41
2022-12-23T16:01:52.478Z,99748.97
2022-12-23T16:04:26.271Z,99746.09
2022-12-23T16:06:55.014Z,99745.91
2022-12-23T16:09:22.016Z,99750.22
2022-12-23T16:11:51.854Z,99755.34
2022-12-23T16:14:31.448Z,99762.25
2022-12-23T16:17:02.279Z,99772.94
2022-12-23T16:19:35.876Z,99762.72
2022-12-23T16:22:24.100Z,99763.00
2022-12-23T16:24:58.371Z,99758.50
2022-12-23T16:27:33.852Z,99764.69
2022-12-23T16:30:03.533Z,99759.56
2022-12-23T16:32:30.859Z,99770.09
2022-12-23T16:35:09.510Z,99769.25
2022-12-23T16:37:36.583Z,99764.78
2022-12-23T16:40:13.605Z,99767.13
2022-12-23T16:42:40.675Z,99763.47
2022-12-23T16:45:12.775Z,99760.59
2022-12-23T16:47:41.841Z,99763.13
2022-12-23T16:50:12.339Z,99764.88
2022-12-23T16:52:39.445Z,99758.06
2022-12-23T16:55:14.447Z,99748.53
2022-12-23T16:57:41.823Z,99754.50
2022-12-23T17:00:13.221Z,99745.63
2022-12-23T17:02:40.375Z,99743.09
2022-12-23T17:05:08.341Z,99737.78
2022-12-23T17:07:38.736Z,99728.16
2022-12-23T17:10:09.387Z,99729.72
2022-12-23T17:12:36.715Z,99724.41
2022-12-23T17:15:05.188Z,99723.38
2022-12-23T17:17:32.284Z,99722.53
2022-12-23T17:19:59.579Z,99720.03
2022-12-23T17:22:34.790Z,99720.47
2022-12-23T17:25:02.075Z,99718.13
2022-12-23T17:27:29.277Z,99712.78
2022-12-23T17:29:56.399Z,99708.22
2022-12-23T17:32:23.620Z,99708.88
2022-12-23T17:34:50.869Z,99703.47
2022-12-23T17:37:20.045Z,99702.63
2022-12-23T17:39:47.795Z,99695.50
2022-12-23T17:42:24.929Z,99690.28
2022-12-23T17:44:53.025Z,99691.00
2022-12-23T17:47:22.183Z,99685.78
2022-12-23T17:49:49.901Z,99683.16
2022-12-23T17:52:22.953Z,99679.69
2022-12-23T17:54:51.463Z,99675.41
2022-12-23T17:57:24.948Z,99673.56
2022-12-23T17:59:53.484Z,99674.47
2022-12-23T18:02:32.998Z,99677.91
2022-12-23T18:05:00.234Z,99671.78
2022-12-23T18:07:27.794Z,99677.84
2022-12-23T18:09:55.038Z,99677.06
2022-12-23T18:12:35.629Z,99666.81
2022-12-23T18:15:04.172Z,99669.72
2022-12-23T18:17:31.469Z,99668.88
2022-12-23T18:19:58.552Z,99669.72
2022-12-23T18:22:26.322Z,99672.22
2022-12-23T18:24:58.809Z,99662.69
2022-12-23T18:27:26.560Z,99661.03
2022-12-23T18:29:53.684Z,99662.31
2022-12-23T18:32:29.640Z,99657.19
2022-12-23T18:34:56.770Z,99652.13
2022-12-23T18:37:24.095Z,99654.75
2022-12-23T18:39:51.268Z,99651.28
2022-12-23T18:42:20.105Z,99654.84
2022-12-23T18:44:50.870Z,99652.84
2022-12-23T18:47:18.022Z,99654.34
2022-12-23T18:49:45.168Z,99652.56
2022-12-23T18:52:15.082Z,99657.75
2022-12-23T18:54:42.264Z,99662.22
2022-12-23T18:57:10.533Z,99663.06
2022-12-23T18:59:38.976Z,99666.78
2022-12-23T19:02:06.219Z,99658.03
2022-12-23T19:04:34.013Z,99666.59
2022-12-23T19:07:01.151Z,99659.59
2022-12-23T19:09:28.293Z,99663.06
2022-12-23T19:11:55.524Z,99661.28
2022-12-23T19:14:22.818Z,99658.75
2022-12-23T19:16:52.262Z,99655.41
2022-12-23T19:19:20.551Z,99647.63
2022-12-23T19:21:47.688Z,99647.56
2022-12-23T19:24:14.741Z,99644.00
2022-12-23T19:26:41.970Z,99645.66
2022-12-23T19:29:09.157Z,99644.00
2022-12-23T19:31:36.337Z,99648.38
2022-12-23T19:34:03.473Z,99654.56
2022-12-23T19:36:30.814Z,99647.63
2022-12-23T19:38:58.164Z,99644.38
2022-12-23T19:41:25.468Z,99638.66
2022-12-23T19:43:52.743Z,99641.44
2022-12-23T19:46:19.922Z,99643.16
2022-12-23T19:48:52.372Z,99632.97
2022-12-23T19:51:19.826Z,99636.31
2022-12-23T19:53:50.215Z,99642.59
2022-12-23T19:56:21.068Z,99639.69
2022-12-23T19:58:49.081Z,99637.34
2022-12-23T20:01:24.990Z,99633.59
2022-12-23T20:03:53.917Z,99632.13
2022-12-23T20:06:24.302Z,99630.41
2022-12-23T20:08:56.372Z,99624.72
2022-12-23T20:11:30.284Z,99625.47
2022-12-23T20:13:58.333Z,99620.31
2022-12-23T20:16:26.161Z,99623.78
2022-12-23T20:18:54.361Z,99625.47
2022-12-23T20:21:21.636Z,99620.59
2022-12-23T20:23:48.993Z,99618.09
2022-12-23T20:26:17.742Z,99615.38
2022-12-23T20:28:45.298Z,99610.81
2022-12-23T20:31:15.182Z,99608.19
2022-12-23T20:33:42.667Z,99598.47
2022-12-23T20:36:12.686Z,99593.31
2022-12-23T20:38:42.216Z,99592.09
2022-12-23T20:41:11.496Z,99587.81
2022-12-23T20:43:39.214Z,99586.22
2022-12-23T20:46:08.300Z,99584.25
2022-12-23T20:48:35.547Z,99586.03
2022-12-23T20:51:13.162Z,99585.91
2022-12-23T20:53:40.902Z,99580.41
2022-12-23T20:56:14.781Z,99588.44
2022-12-23T20:59:02.622Z,99581.63
2022-12-23T21:01:35.329Z,99579.91
2022-12-23T21:04:05.147Z,99581.06
2022-12-23T21:06:33.728Z,99580.13
2022-12-23T21:09:01.386Z,99580.97
2022-12-23T21:11:29.662Z,99589.19
2022-12-23T21:14:01.123Z,99591.03
2022-12-23T21:16:32.046Z,99593.38
2022-12-23T21:18:59.662Z,99596.25
2022-12-23T21:21:28.111Z,99591.69
2022-12-23T21:23:56.834Z,99600.66
2022-12-23T21:26:26.518Z,99597.47
2022-12-23T21:28:55.207Z,99596.97
2022-12-23T21:31:23.934Z,99594.56
2022-12-23T21:33:52.268Z,99598.00
2022-12-23T21:36:22.561Z,99599.03
2022-12-23T21:38:50.337Z,99591.38
2022-12-23T21:41:23.375Z,99583.59
2022-12-23T21:43:51.336Z,99586.88
2022-12-23T21:46:20.690Z,99576.06
2022-12-23T21:48:48.787Z,99580.94
2022-12-23T21:51:22.593Z,99583.47
2022-12-23T21:53:52.295Z,99592.06
2022-12-23T21:56:21.980Z,99571.31
2022-12-23T21:58:49.089Z,99578.41
2022-12-23T22:01:18.919Z,99572.59
2022-12-23T22:03:48.303Z,99576.44
2022-12-23T22:06:17.902Z,99568.41
2022-12-23T22:08:45.217Z,99569.41
2022-12-23T22:11:15.140Z,99568.47
2022-12-23T22:13:43.378Z,99568.72
2022-12-23T22:16:12.364Z,99564.44
2022-12-23T22:18:40.020Z,99562.09
2022-12-23T22:21:09.537Z,99564.41
2022-12-23T22:23:37.866Z,99555.63
2022-12-23T22:26:06.284Z,99548.47
2022-12-23T22:28:35.075Z,99553.16
2022-12-23T22:31:24.212Z,99559.78
2022-12-23T22:33:51.401Z,99558.81
2022-12-23T22:36:18.549Z,99551.13
2022-12-23T22:38:54.814Z,99553.13
2022-12-23T22:41:22.771Z,99548.72
2022-12-23T22:43:50.282Z,99551.91
2022-12-23T22:46:18.262Z,99549.19
2022-12-23T22:48:45.988Z,99553.31
2022-12-23T22:51:15.407Z,99552.75
2022-12-23T22:53:42.770Z,99547.63
2022-12-23T22:56:12.186Z,99555.63
2022-12-23T22:58:39.822Z,99552.53
2022-12-23T23:01:07.992Z,99556.81
2022-12-23T23:03:35.139Z,99552.91
2022-12-23T23:06:04.663Z,99555.22
2022-12-23T23:08:32.173Z,99550.34
2022-12-23T23:11:02.308Z,99552.97
2022-12-23T23:13:31.826Z,99553.44
2022-12-23T23:15:59.498Z,99551.94
2022-12-23T23:18:28.160Z,99551.19
2022-12-23T23:20:55.358Z,99548.94
2022-12-23T23:23:22.517Z,99551.63
2022-12-23T23:25:49.728Z,99547.91
2022-12-23T23:28:16.918Z,99553.97
2022-12-23T23:30:44.154Z,99561.13
2022-12-23T23:33:11.641Z,99554.16
2022-12-23T23:35:39.043Z,99558.34
2022-12-23T23:38:06.414Z,99558.25
2022-12-23T23:40:33.557Z,99563.59
2022-12-23T23:43:00.992Z,99563.69
2022-12-23T23:45:28.147Z,99560.41
2022-12-23T23:47:55.620Z,99571.69
2022-12-23T23:50:22.998Z,99565.75
2022-12-23T23:52:50.197Z,99568.13
2022-12-23T23:55:17.439Z,99580.78
2022-12-23T23:57:44.571Z,99579.34
